createdAt,value
2023-04-15T00:02:55.770Z,96307.44
2023-04-15T00:06:01.963Z,96310.16
2023-04-15T00:09:04.632Z,96304.16
2023-04-15T00:12:08.288Z,96317.78
2023-04-15T00:15:12.700Z,96320.50
2023-04-15T00:18:15.310Z,96324.38
2023-04-15T00:21:17.489Z,96315.34
2023-04-15T00:24:19.620Z,96348.84
2023-04-15T00:27:21.896Z,96263.06
2023-04-15T00:30:26.666Z,96154.41
2023-04-15T00:33:31.509Z,96309.91
2023-04-15T00:36:35.300Z,96076.44
2023-04-15T00:39:37.605Z,96083.66
2023-04-15T00:42:42.709Z,96235.16
2023-04-15T00:45:45.027Z,96026.38
2023-04-15T00:48:47.840Z,95845.00
2023-04-15T00:51:50.059Z,95857.78
2023-04-15T00:54:53.287Z,95856.78
2023-04-15T00:57:56.557Z,96117.13
2023-04-15T01:00:59.404Z,96185.75
2023-04-15T01:04:02.646Z,96000.19
2023-04-15T01:07:05.223Z,96283.66
2023-04-15T01:10:08.511Z,95872.34
2023-04-15T01:13:13.917Z,96164.16
2023-04-15T01:16:17.282Z,96115.09
2023-04-15T01:19:21.545Z,96197.63
2023-04-15T01:22:26.946Z,96282.75
2023-04-15T01:25:33.630Z,95877.38
2023-04-15T01:28:37.847Z,96361.25
2023-04-15T01:31:40.584Z,96239.88
2023-04-15T01:34:43.085Z,96362.06
2023-04-15T01:37:45.709Z,96383.84
2023-04-15T01:40:48.363Z,96296.84
2023-04-15T01:43:50.480Z,96261.56
2023-04-15T01:46:52.956Z,96322.13
2023-04-15T01:49:56.306Z,96371.28
2023-04-15T01:52:58.714Z,96299.84
2023-04-15T01:56:02.525Z,96346.38
2023-04-15T01:59:04.781Z,96151.66
2023-04-15T02:02:07.177Z,96244.19
2023-04-15T02:05:09.849Z,96326.78
2023-04-15T02:08:12.909Z,96142.31
2023-04-15T02:11:17.814Z,96106.34
2023-04-15T02:14:20.256Z,96007.28
2023-04-15T02:17:23.517Z,95921.22
2023-04-15T02:20:26.001Z,96101.28
2023-04-15T02:23:28.344Z,96185.75
2023-04-15T02:26:32.973Z,96425.88
2023-04-15T02:29:35.325Z,96413.56
2023-04-15T02:32:38.533Z,96265.13
2023-04-15T02:35:44.668Z,96164.06
2023-04-15T02:38:47.123Z,96169.50
2023-04-15T02:41:53.545Z,96360.66
2023-04-15T02:44:59.884Z,96170.94
2023-04-15T02:48:07.064Z,96361.09
2023-04-15T02:51:20.253Z,96215.59
2023-04-15T02:54:23.569Z,96239.75
2023-04-15T02:57:26.511Z,96206.22
2023-04-15T03:00:30.905Z,96241.19
2023-04-15T03:03:33.724Z,96340.41
2023-04-15T03:06:38.726Z,96128.09
2023-04-15T03:09:49.055Z,95915.91
2023-04-15T03:12:51.607Z,95973.59
2023-04-15T03:15:56.843Z,96348.50
2023-04-15T03:19:01.665Z,96188.63
2023-04-15T03:22:04.996Z,95973.56
2023-04-15T03:25:08.185Z,96137.03
2023-04-15T03:28:10.859Z,95933.31
2023-04-15T03:31:13.727Z,95933.47
2023-04-15T03:34:16.413Z,96166.75
2023-04-15T03:37:18.776Z,96309.25
2023-04-15T03:40:41.679Z,96424.00
2023-04-15T03:43:45.684Z,95911.66
2023-04-15T03:46:48.450Z,96196.69
2023-04-15T03:49:51.010Z,96132.47
2023-04-15T03:52:53.477Z,96134.53
2023-04-15T03:55:56.349Z,96228.91
2023-04-15T03:59:01.665Z,96183.22
2023-04-15T04:02:07.642Z,96273.69
2023-04-15T04:05:10.275Z,96290.94
2023-04-15T04:08:16.650Z,96435.25
2023-04-15T04:11:19.169Z,96053.50
2023-04-15T04:14:21.892Z,96007.41
2023-04-15T04:17:24.464Z,96130.84
2023-04-15T04:20:26.876Z,96476.38
2023-04-15T04:23:29.368Z,96420.63
2023-04-15T04:26:34.768Z,96251.44
2023-04-15T04:29:37.119Z,96026.06
2023-04-15T04:32:39.522Z,96214.69
2023-04-15T04:35:44.302Z,96458.16
2023-04-15T04:38:46.680Z,96133.72
2023-04-15T04:41:49.036Z,96234.19
2023-04-15T04:44:52.933Z,96167.69
2023-04-15T04:47:55.708Z,96473.84
2023-04-15T04:50:58.305Z,96390.28
2023-04-15T04:54:08.906Z,96205.97
2023-04-15T04:57:13.912Z,96255.88
2023-04-15T05:00:19.653Z,95971.91
2023-04-15T05:03:25.206Z,96298.78
2023-04-15T05:06:28.108Z,96508.09
2023-04-15T05:09:32.670Z,96441.47
2023-04-15T05:12:36.034Z,96232.88
2023-04-15T05:15:40.065Z,96515.84
2023-04-15T05:18:42.699Z,96262.13
2023-04-15T05:21:45.056Z,96316.13
2023-04-15T05:24:47.406Z,96252.13
2023-04-15T05:27:52.404Z,96153.47
2023-04-15T05:30:57.080Z,96335.50
2023-04-15T05:33:59.607Z,96339.56
2023-04-15T05:37:01.886Z,96501.81
2023-04-15T05:40:04.834Z,96240.00
2023-04-15T05:43:07.167Z,96128.22
2023-04-15T05:46:09.777Z,96349.81
2023-04-15T05:49:14.735Z,96420.47
2023-04-15T05:52:19.802Z,96303.88
2023-04-15T05:55:22.454Z,96406.81
2023-04-15T05:58:24.711Z,96230.94
2023-04-15T06:01:27.068Z,96516.69
2023-04-15T06:04:29.512Z,96056.66
2023-04-15T06:07:32.013Z,96368.09
2023-04-15T06:10:37.029Z,96262.06
2023-04-15T06:13:39.282Z,96089.41
2023-04-15T06:16:41.640Z,96521.31
2023-04-15T06:19:43.706Z,96527.25
2023-04-15T06:22:45.742Z,96528.75
2023-04-15T06:25:47.727Z,96512.97
2023-04-15T06:28:51.445Z,96530.34
2023-04-15T06:31:53.679Z,96532.22
2023-04-15T06:34:55.866Z,96526.31
2023-04-15T06:37:58.085Z,96505.00
2023-04-15T06:41:01.085Z,96544.72
2023-04-15T06:44:08.945Z,96541.53
2023-04-15T06:47:14.205Z,96549.69
2023-04-15T06:50:18.303Z,96542.88
2023-04-15T06:53:22.076Z,96550.47
2023-04-15T06:56:25.142Z,96544.16
2023-04-15T06:59:28.820Z,96550.47
2023-04-15T07:02:37.703Z,96565.53
2023-04-15T07:05:42.109Z,96521.19
2023-04-15T07:08:51.029Z,96567.06
2023-04-15T07:11:58.466Z,96561.06
2023-04-15T07:15:11.479Z,96560.63
2023-04-15T07:18:16.978Z,96566.03
2023-04-15T07:21:21.506Z,96564.31
2023-04-15T07:24:30.437Z,96570.16
2023-04-15T07:27:50.406Z,96569.50
2023-04-15T07:30:58.012Z,96573.84
2023-04-15T07:34:06.064Z,96577.06
2023-04-15T07:37:17.993Z,96585.66
2023-04-15T07:40:42.178Z,96580.94
2023-04-15T07:44:11.672Z,96589.88
2023-04-15T07:47:40.876Z,96587.03
2023-04-15T07:50:58.922Z,96595.06
2023-04-15T07:54:21.504Z,96591.03
2023-04-15T07:57:51.425Z,96560.28
2023-04-15T08:01:13.207Z,96602.38
2023-04-15T08:04:39.527Z,96606.63
2023-04-15T08:08:14.998Z,96609.03
2023-04-15T08:11:27.440Z,96619.25
2023-04-15T08:14:52.148Z,96615.56
2023-04-15T08:17:58.185Z,96600.09
2023-04-15T08:21:00.319Z,96608.44
2023-04-15T08:24:03.433Z,96592.41
2023-04-15T08:27:05.951Z,96625.31
2023-04-15T08:30:08.699Z,96623.59
2023-04-15T08:33:10.768Z,96628.66
2023-04-15T08:36:14.112Z,96623.38
2023-04-15T08:39:16.262Z,96609.16
2023-04-15T08:42:22.065Z,96631.03
2023-04-15T08:45:24.237Z,96637.81
2023-04-15T08:48:29.873Z,96644.25
2023-04-15T08:51:33.934Z,96639.78
2023-04-15T08:54:36.917Z,96639.78
2023-04-15T08:57:40.046Z,96647.78
2023-04-15T09:00:42.253Z,96643.66
2023-04-15T09:03:44.559Z,96631.63
2023-04-15T09:06:47.487Z,96646.72
2023-04-15T09:09:49.736Z,96646.94
2023-04-15T09:12:52.078Z,96653.38
2023-04-15T09:15:54.163Z,96650.28
2023-04-15T09:18:56.368Z,96650.34
2023-04-15T09:21:59.778Z,96651.59
2023-04-15T09:25:01.941Z,96665.94
2023-04-15T09:28:04.558Z,96615.81
2023-04-15T09:31:06.679Z,96649.03
2023-04-15T09:34:08.820Z,96661.75
2023-04-15T09:37:11.431Z,96667.81
2023-04-15T09:40:13.986Z,96674.44
2023-04-15T09:43:17.720Z,96640.28
2023-04-15T09:46:20.357Z,96670.84
2023-04-15T09:49:22.395Z,96676.13
2023-04-15T09:52:24.456Z,96680.69
2023-04-15T09:55:26.840Z,96682.19
2023-04-15T09:58:31.420Z,96679.28
2023-04-15T10:01:33.720Z,96654.56
2023-04-15T10:04:40.089Z,96684.81
2023-04-15T10:07:43.010Z,96682.09
2023-04-15T10:10:46.979Z,96664.34
2023-04-15T10:13:50.770Z,96691.50
2023-04-15T10:16:56.702Z,96688.97
2023-04-15T10:20:01.442Z,96700.22
2023-04-15T10:23:03.930Z,96692.38
2023-04-15T10:26:07.305Z,96694.78
2023-04-15T10:29:10.710Z,96704.09
2023-04-15T10:32:14.042Z,96704.69
2023-04-15T10:35:18.535Z,96685.91
2023-04-15T10:38:34.178Z,96716.88
2023-04-15T10:41:36.557Z,96714.13
2023-04-15T10:44:43.362Z,96721.25
2023-04-15T10:47:45.752Z,96690.59
2023-04-15T10:50:59.366Z,96719.88
2023-04-15T10:54:01.754Z,96712.09
2023-04-15T10:57:06.950Z,96707.25
2023-04-15T11:00:13.292Z,96734.75
2023-04-15T11:03:16.079Z,96716.91
2023-04-15T11:06:18.429Z,96727.53
2023-04-15T11:09:38.057Z,96713.78
2023-04-15T11:12:42.211Z,96729.28
2023-04-15T11:15:48.862Z,96732.81
2023-04-15T11:18:56.182Z,96742.16
2023-04-15T11:21:58.243Z,96716.63
2023-04-15T11:25:00.243Z,96739.66
2023-04-15T11:28:02.848Z,96739.69
2023-04-15T11:31:13.920Z,96747.25
2023-04-15T11:34:23.280Z,96746.94
2023-04-15T11:37:30.200Z,96747.25
2023-04-15T11:40:36.046Z,96748.53
2023-04-15T11:43:39.134Z,96723.72
2023-04-15T11:46:41.356Z,96704.78
2023-04-15T11:49:43.622Z,96723.31
2023-04-15T11:53:01.771Z,96757.34
2023-04-15T11:56:03.992Z,96754.06
2023-04-15T11:59:05.985Z,96766.28
2023-04-15T12:02:14.522Z,96716.66
2023-04-15T12:05:17.062Z,96750.56
2023-04-15T12:08:19.115Z,96773.81
2023-04-15T12:11:27.873Z,96744.59
2023-04-15T12:14:33.898Z,96776.19
2023-04-15T12:17:51.368Z,96770.66
2023-04-15T12:20:54.803Z,96785.75
2023-04-15T12:23:58.593Z,96781.19
2023-04-15T12:27:05.320Z,96784.31
2023-04-15T12:30:08.314Z,96782.53
2023-04-15T12:33:10.725Z,96786.56
2023-04-15T12:36:13.674Z,96787.63
2023-04-15T12:39:16.063Z,96798.66
2023-04-15T12:42:19.122Z,96795.38
2023-04-15T12:45:21.716Z,96797.63
2023-04-15T12:48:23.716Z,96787.38
2023-04-15T12:51:26.619Z,96788.66
2023-04-15T12:54:29.721Z,96796.59
2023-04-15T12:57:31.756Z,96796.75
2023-04-15T13:03:56.569Z,96789.94
2023-04-15T13:06:58.783Z,96800.03
2023-04-15T13:10:00.847Z,96809.88
2023-04-15T13:13:03.721Z,96809.41
2023-04-15T13:16:06.522Z,96813.44
2023-04-15T13:19:08.784Z,96814.72
2023-04-15T13:22:11.727Z,96787.38
2023-04-15T13:25:13.833Z,96812.56
2023-04-15T13:28:15.980Z,96812.63
2023-04-15T13:31:18.035Z,96818.25
2023-04-15T13:34:20.106Z,96820.34
2023-04-15T13:37:28.189Z,96819.81
2023-04-15T13:40:31.227Z,96819.09
2023-04-15T13:43:34.518Z,96793.97
2023-04-15T13:46:38.089Z,96825.50
2023-04-15T13:49:40.216Z,96816.81
2023-04-15T13:52:42.414Z,96830.41
2023-04-15T13:55:44.472Z,96824.38
2023-04-15T13:58:46.467Z,96835.50
2023-04-15T14:01:48.739Z,96825.22
2023-04-15T14:04:51.396Z,96830.09
2023-04-15T14:07:53.800Z,96829.06
2023-04-15T14:10:55.956Z,96837.13
2023-04-15T14:13:58.065Z,96813.53
2023-04-15T14:17:00.297Z,96839.91
2023-04-15T14:20:02.461Z,96828.78
2023-04-15T14:23:04.518Z,96841.88
2023-04-15T14:26:06.728Z,96860.97
2023-04-15T14:29:08.688Z,96859.06
2023-04-15T14:32:12.789Z,96868.06
2023-04-15T14:35:15.135Z,96871.25
2023-04-15T14:38:17.294Z,96874.06
2023-04-15T14:41:19.289Z,96875.97
2023-04-15T14:44:21.610Z,96887.84
2023-04-15T14:47:24.477Z,96893.63
2023-04-15T14:50:27.139Z,96885.66
2023-04-15T14:53:29.209Z,96891.59
2023-04-15T14:56:31.727Z,96886.72
2023-04-15T14:59:33.889Z,96897.88
2023-04-15T15:02:39.663Z,96896.25
2023-04-15T15:05:45.224Z,96900.84
2023-04-15T15:08:47.730Z,96919.47
2023-04-15T15:11:50.453Z,96918.59
2023-04-15T15:14:52.655Z,96915.03
2023-04-15T15:17:54.899Z,96910.47
2023-04-15T15:20:57.247Z,96929.88
2023-04-15T15:23:59.373Z,96924.22
2023-04-15T15:27:02.315Z,96920.94
2023-04-15T15:30:04.649Z,96925.91
2023-04-15T15:33:06.737Z,96921.38
2023-04-15T15:36:10.939Z,96936.84
2023-04-15T15:39:12.990Z,96943.75
2023-04-15T15:42:15.025Z,96946.38
2023-04-15T15:45:17.851Z,96945.44
2023-04-15T15:48:20.011Z,96942.66
2023-04-15T15:51:22.210Z,96911.31
2023-04-15T15:54:25.115Z,96954.78
2023-04-15T15:57:30.383Z,96954.94
2023-04-15T16:00:32.684Z,96958.38
2023-04-15T16:03:34.839Z,96947.94
2023-04-15T16:06:36.946Z,96966.09
2023-04-15T16:09:41.548Z,96973.31
2023-04-15T16:12:43.719Z,96965.69
2023-04-15T16:15:46.241Z,96970.72
2023-04-15T16:18:48.291Z,96939.25
2023-04-15T16:21:50.756Z,96975.66
2023-04-15T16:24:53.910Z,96971.78
2023-04-15T16:28:03.490Z,96979.50
2023-04-15T16:31:13.821Z,96955.03
2023-04-15T16:34:16.393Z,96978.59
2023-04-15T16:37:18.398Z,96980.69
2023-04-15T16:40:20.468Z,96992.97
2023-04-15T16:43:22.582Z,97000.00
2023-04-15T16:46:24.867Z,97006.81
2023-04-15T16:49:26.954Z,97005.44
2023-04-15T16:52:29.396Z,97009.22
2023-04-15T16:55:32.062Z,97016.47
2023-04-15T16:58:34.332Z,96999.56
2023-04-15T17:01:37.049Z,97028.88
2023-04-15T17:04:40.680Z,97030.59
2023-04-15T17:07:43.280Z,97026.41
2023-04-15T17:10:45.755Z,97010.63
2023-04-15T17:13:47.925Z,97033.66
2023-04-15T17:16:50.249Z,97039.94
2023-04-15T17:19:52.501Z,97043.81
2023-04-15T17:22:55.093Z,97049.53
2023-04-15T17:25:57.324Z,97008.03
2023-04-15T17:28:59.686Z,97047.22
2023-04-15T17:32:04.269Z,97065.47
2023-04-15T17:35:07.593Z,97070.06
2023-04-15T17:38:09.829Z,97066.00
2023-04-15T17:41:12.591Z,97071.94
2023-04-15T17:44:15.229Z,97074.09
2023-04-15T17:47:17.787Z,97069.78
2023-04-15T17:50:20.988Z,97067.41
2023-04-15T17:53:23.549Z,97066.09
2023-04-15T17:56:28.504Z,97089.28
2023-04-15T17:59:32.227Z,97093.69
2023-04-15T18:04:14.952Z,97103.06
2023-04-15T18:07:17.744Z,97114.91
2023-04-15T18:10:21.184Z,97125.00
2023-04-15T18:13:24.012Z,97130.63
2023-04-15T18:16:27.765Z,97133.84
2023-04-15T18:19:32.997Z,97140.03
2023-04-15T18:22:35.760Z,97140.53
2023-04-15T18:25:39.362Z,97107.91
2023-04-15T18:28:42.368Z,97145.56
2023-04-15T18:31:45.459Z,97140.78
2023-04-15T18:34:48.088Z,97110.00
2023-04-15T18:37:53.851Z,97162.16
2023-04-15T18:40:56.716Z,97125.41
2023-04-15T18:43:59.740Z,97175.22
2023-04-15T18:47:03.275Z,97170.41
2023-04-15T18:50:07.259Z,97178.75
2023-04-15T18:53:09.854Z,97170.91
2023-04-15T18:56:26.826Z,97190.97
2023-04-15T18:59:30.702Z,97190.22
2023-04-15T19:02:34.138Z,97196.50
2023-04-15T19:05:37.920Z,97183.97
2023-04-15T19:08:41.070Z,97207.66
2023-04-15T19:11:48.756Z,97161.97
2023-04-15T19:14:51.385Z,97212.97
2023-04-15T19:17:54.462Z,97217.41
2023-04-15T19:21:00.735Z,97217.00
2023-04-15T19:24:03.890Z,97220.84
2023-04-15T19:27:06.955Z,97225.09
2023-04-15T19:30:15.086Z,97210.09
2023-04-15T19:33:18.121Z,97239.03
2023-04-15T19:36:21.999Z,97232.75
2023-04-15T19:39:25.251Z,97229.69
2023-04-15T19:42:28.481Z,97229.09
2023-04-15T19:45:32.279Z,97208.41
2023-04-15T19:48:35.122Z,97239.78
2023-04-15T19:51:37.332Z,97236.13
2023-04-15T19:54:40.193Z,97245.41
2023-04-15T19:57:42.832Z,97245.34
2023-04-15T20:00:45.840Z,97246.38
2023-04-15T20:03:49.655Z,97247.97
2023-04-15T20:06:53.431Z,97255.22
2023-04-15T20:09:57.806Z,97244.69
2023-04-15T20:13:00.616Z,97251.75
2023-04-15T20:16:03.708Z,97269.53
2023-04-15T20:19:09.933Z,97263.66
2023-04-15T20:22:12.546Z,97269.31
2023-04-15T20:25:15.903Z,97261.38
2023-04-15T20:28:19.960Z,97274.94
2023-04-15T20:31:23.345Z,97287.47
2023-04-15T20:34:26.424Z,97285.22
2023-04-15T20:37:30.604Z,97286.41
2023-04-15T20:40:35.958Z,97290.91
2023-04-15T20:43:39.092Z,97285.59
2023-04-15T20:46:41.844Z,97295.34
2023-04-15T20:49:44.011Z,97295.56
2023-04-15T20:52:48.220Z,97295.97
2023-04-15T20:55:50.672Z,97288.06
2023-04-15T20:58:53.676Z,97272.88
2023-04-15T21:01:57.453Z,97308.13
2023-04-15T21:04:59.953Z,97265.38
2023-04-15T21:08:02.166Z,97297.78
2023-04-15T21:11:04.478Z,97276.69
2023-04-15T21:14:08.626Z,97291.88
2023-04-15T21:17:11.623Z,97318.22
2023-04-15T21:20:13.836Z,97323.47
2023-04-15T21:23:15.960Z,97318.84
2023-04-15T21:26:18.504Z,97300.63
2023-04-15T21:29:20.750Z,97322.28
2023-04-15T21:32:22.982Z,97304.06
2023-04-15T21:35:25.192Z,97331.84
2023-04-15T21:38:27.439Z,97177.91
2023-04-15T21:41:29.862Z,97330.03
2023-04-15T21:44:31.872Z,97339.94
2023-04-15T21:47:59.395Z,97346.00
2023-04-15T21:51:00.409Z,97346.63
2023-04-15T21:54:02.721Z,97336.47
2023-04-15T21:57:04.809Z,97331.84
2023-04-15T22:00:08.709Z,97346.84
2023-04-15T22:03:10.815Z,97350.28
2023-04-15T22:06:13.905Z,97347.66
2023-04-15T22:09:16.228Z,97357.97
2023-04-15T22:12:18.351Z,97357.56
2023-04-15T22:15:20.392Z,97363.63
2023-04-15T22:18:22.380Z,97361.00
2023-04-15T22:21:24.466Z,97341.94
2023-04-15T22:24:32.544Z,97375.75
2023-04-15T22:27:42.032Z,97371.13
2023-04-15T22:30:44.083Z,97383.25
2023-04-15T22:33:46.091Z,97389.28
2023-04-15T22:36:49.246Z,97371.63
2023-04-15T22:39:52.050Z,97348.56
2023-04-15T22:42:54.155Z,97340.44
2023-04-15T22:45:56.876Z,97389.88
2023-04-15T22:48:59.043Z,97378.25
2023-04-15T22:52:01.195Z,97393.28
2023-04-15T22:55:04.061Z,97401.78
2023-04-15T22:58:06.236Z,97403.38
2023-04-15T23:01:08.516Z,97404.81
2023-04-15T23:04:10.993Z,97411.69
2023-04-15T23:07:25.543Z,97418.41
2023-04-15T23:10:28.490Z,97421.44
2023-04-15T23:13:30.633Z,97399.56
2023-04-15T23:16:32.893Z,97360.88
2023-04-15T23:19:34.992Z,97422.69
2023-04-15T23:22:38.005Z,97432.63
2023-04-15T23:25:39.907Z,97428.44
2023-04-15T23:28:41.957Z,97421.75
2023-04-15T23:31:44.008Z,97426.44
2023-04-15T23:34:46.122Z,97430.28
2023-04-15T23:37:48.232Z,97432.53
2023-04-15T23:40:51.584Z,97430.50
2023-04-15T23:43:53.603Z,97436.59
2023-04-15T23:46:56.033Z,97430.31
2023-04-15T23:49:58.108Z,97435.41
2023-04-15T23:53:00.284Z,97437.59
2023-04-15T23:56:02.359Z,97418.31
2023-04-15T23:59:04.504Z,97434.50
